Time;durP1;ratioP1;P1;durP2;ratioP2;P2;SDS_P1;SDS_P2;PMS_P1;PMS_P2;Temp;Humidity;BMP_temperature;BMP_pressure;BME280_temperature;BME280_humidity;BME280_pressure;Samples;Min_cycle;Max_cycle;Signal;HPM_P1;HPM_P2
2023/01/02 00:00:25;;;;;;;0.90;0.90;;;;;9.90;96187.00;;;;5054657;28;20188;-57
2023/01/02 00:02:52;;;;;;;0.73;0.73;;;;;9.80;96176.00;;;;5054565;28;20711;-57
2023/01/02 00:05:19;;;;;;;0.93;0.87;;;;;9.80;96175.00;;;;5054496;28;20690;-57
2023/01/02 00:07:48;;;;;;;0.80;0.80;;;;;9.80;96169.00;;;;5054546;28;20193;-57
2023/01/02 00:10:16;;;;;;;0.70;0.70;;;;;9.90;96171.00;;;;5054396;28;20199;-57
2023/01/02 00:12:43;;;;;;;0.90;0.90;;;;;10.00;96166.00;;;;5054414;28;20713;-57
2023/01/02 00:15:11;;;;;;;0.97;0.97;;;;;10.00;96161.00;;;;5054423;28;20687;-57
2023/01/02 00:17:38;;;;;;;0.70;0.70;;;;;10.10;96152.00;;;;5054527;28;20207;-57
2023/01/02 00:20:07;;;;;;;0.93;0.93;;;;;10.00;96155.00;;;;5054729;28;20192;-57
2023/01/02 00:22:34;;;;;;;0.80;0.80;;;;;10.10;96150.00;;;;5054138;28;20664;-57
2023/01/02 00:25:03;;;;;;;1.00;1.00;;;;;10.10;96154.00;;;;5054099;28;20230;-57
2023/01/02 00:27:30;;;;;;;0.90;0.90;;;;;10.00;96160.00;;;;5054135;28;20192;-57
2023/01/02 00:29:58;;;;;;;12.47;1.00;;;;;9.90;96151.00;;;;5054058;28;20192;-57
2023/01/02 00:32:25;;;;;;;0.70;0.70;;;;;9.70;96148.00;;;;5054091;28;20686;-57
2023/01/02 00:34:53;;;;;;;0.90;0.90;;;;;9.60;96146.00;;;;5053969;28;20224;-57
2023/01/02 00:37:20;;;;;;;1.03;1.03;;;;;9.50;96145.00;;;;5053879;28;20227;-57
2023/01/02 00:39:47;;;;;;;0.87;0.87;;;;;9.40;96148.00;;;;5053894;28;20274;-57
2023/01/02 00:42:16;;;;;;;0.87;0.87;;;;;9.50;96145.00;;;;5053846;28;20196;-57
2023/01/02 00:44:44;;;;;;;0.90;0.90;;;;;9.60;96147.00;;;;5053606;28;20220;-57
2023/01/02 00:47:11;;;;;;;0.80;0.80;;;;;9.60;96145.00;;;;5053781;28;20250;-57
2023/01/02 00:49:38;;;;;;;0.83;0.83;;;;;9.90;96136.00;;;;5053727;28;20694;-56
2023/01/02 00:52:06;;;;;;;1.70;1.43;;;;;10.10;96147.00;;;;5053950;28;20269;-57
2023/01/02 00:54:33;;;;;;;0.80;0.80;;;;;10.00;96154.00;;;;5053816;28;20216;-57
2023/01/02 00:57:01;;;;;;;0.60;0.60;;;;;9.90;96135.00;;;;5053549;28;20669;-57
2023/01/02 00:59:29;;;;;;;0.60;0.60;;;;;9.70;96139.00;;;;5053974;28;20239;-57
2023/01/02 01:01:57;;;;;;;1.33;1.23;;;;;9.90;96150.00;;;;5052622;28;20192;-57
2023/01/02 01:04:24;;;;;;;0.80;0.80;;;;;10.00;96144.00;;;;5053355;28;20265;-57
2023/01/02 01:06:51;;;;;;;0.70;0.70;;;;;10.10;96146.00;;;;5053433;28;20196;-57
2023/01/02 01:09:19;;;;;;;1.33;1.33;;;;;9.90;96146.00;;;;5053392;28;20658;-57
2023/01/02 01:11:46;;;;;;;0.63;0.63;;;;;10.00;96148.00;;;;5053313;28;20207;-57
2023/01/02 01:14:14;;;;;;;0.80;0.80;;;;;9.80;96146.00;;;;5053159;28;20706;-57
2023/01/02 01:16:43;;;;;;;0.80;0.80;;;;;10.00;96154.00;;;;5053506;28;20591;-57
2023/01/02 01:19:11;;;;;;;2.43;0.90;;;;;10.20;96155.00;;;;5053137;28;20208;-57
2023/01/02 01:21:38;;;;;;;0.80;0.80;;;;;10.20;96147.00;;;;5053151;28;20196;-57
2023/01/02 01:24:06;;;;;;;0.90;0.90;;;;;10.10;96143.00;;;;5053080;28;20212;-57
2023/01/02 01:26:33;;;;;;;1.50;1.43;;;;;10.10;96142.00;;;;5053105;28;20246;-57
2023/01/02 01:29:01;;;;;;;0.60;0.60;;;;;10.10;96152.00;;;;5053315;28;20697;-57
2023/01/02 01:31:29;;;;;;;0.60;0.60;;;;;10.00;96145.00;;;;5053048;28;20207;-57
2023/01/02 01:33:57;;;;;;;1.03;1.00;;;;;9.90;96147.00;;;;5052954;28;20265;-57
2023/01/02 01:36:25;;;;;;;0.70;0.70;;;;;9.90;96142.00;;;;5053020;28;20261;-57
2023/01/02 01:38:52;;;;;;;2.97;1.37;;;;;9.90;96138.00;;;;5052846;28;20745;-57
2023/01/02 01:41:22;;;;;;;7.50;1.37;;;;;9.90;96143.00;;;;5052940;28;20195;-57
2023/01/02 01:43:52;;;;;;;0.60;0.60;;;;;9.90;96150.00;;;;5052733;28;20250;-57
2023/01/02 01:46:25;;;;;;;0.77;0.77;;;;;10.00;96156.00;;;;5052899;28;20245;-57
2023/01/02 01:48:59;;;;;;;0.87;0.87;;;;;10.00;96156.00;;;;5052903;28;20168;-57
2023/01/02 01:51:29;;;;;;;0.50;0.50;;;;;9.90;96155.00;;;;5052927;28;20180;-57
2023/01/02 01:54:05;;;;;;;0.70;0.70;;;;;9.80;96149.00;;;;5052704;28;20235;-57
2023/01/02 01:56:35;;;;;;;0.60;0.60;;;;;9.90;96153.00;;;;5053131;28;20180;-57
2023/01/02 01:59:03;;;;;;;0.77;0.77;;;;;9.90;96155.00;;;;5052677;28;20269;-57
2023/01/02 02:01:31;;;;;;;1.73;1.63;;;;;9.70;96151.00;;;;5052737;28;20196;-57
2023/01/02 02:04:00;;;;;;;0.77;0.77;;;;;9.80;96159.00;;;;5052632;28;20203;-57
2023/01/02 02:06:28;;;;;;;1.00;1.00;;;;;9.70;96145.00;;;;5052708;28;20196;-57
2023/01/02 02:09:01;;;;;;;0.90;0.90;;;;;9.60;96136.00;;;;5052981;28;20287;-57
2023/01/02 02:11:30;;;;;;;0.63;0.63;;;;;9.60;96131.00;;;;5052656;28;20230;-57
2023/01/02 02:13:59;;;;;;;0.63;0.63;;;;;9.60;96134.00;;;;5056112;28;20215;-57
2023/01/02 02:16:39;;;;;;;0.90;0.90;;;;;9.90;96131.00;;;;5056592;28;20188;-57
2023/01/02 02:19:35;;;;;;;1.50;1.07;;;;;9.80;96116.00;;;;5056767;28;20613;-57
2023/01/02 02:22:23;;;;;;;1.23;1.23;;;;;9.90;96122.00;;;;5056527;28;20196;-57
2023/01/02 02:25:08;;;;;;;1.13;1.13;;;;;9.90;96128.00;;;;5056466;28;20216;-56
2023/01/02 02:28:04;;;;;;;1.00;1.00;;;;;10.10;96132.00;;;;5056686;28;20181;-57
2023/01/02 02:30:37;;;;;;;1.10;1.10;;;;;10.00;96134.00;;;;5056366;28;20181;-57
2023/01/02 02:33:25;;;;;;;0.90;0.90;;;;;9.90;96125.00;;;;5056576;28;20188;-57
2023/01/02 02:36:03;;;;;;;2.63;1.50;;;;;9.80;96125.00;;;;5056232;28;20626;-57
2023/01/02 02:38:47;;;;;;;0.83;0.83;;;;;9.80;96117.00;;;;5056205;28;20204;-57
2023/01/02 02:41:26;;;;;;;3.30;1.23;;;;;9.80;96116.00;;;;5056749;28;20267;-57
2023/01/02 02:44:02;;;;;;;0.80;0.80;;;;;9.70;96113.00;;;;5056219;28;20634;-57
2023/01/02 02:46:40;;;;;;;0.80;0.80;;;;;9.70;96104.00;;;;5056272;28;20188;-57
2023/01/02 02:49:13;;;;;;;0.77;0.77;;;;;9.70;96098.00;;;;5056305;28;20180;-57
2023/01/02 02:51:47;;;;;;;0.77;0.77;;;;;9.70;96086.00;;;;5056231;28;20528;-57
2023/01/02 02:54:22;;;;;;;0.90;0.90;;;;;9.60;96088.00;;;;5055854;28;20215;-57
2023/01/02 02:56:52;;;;;;;0.80;0.80;;;;;9.60;96104.00;;;;5055993;28;20184;-57
2023/01/02 02:59:21;;;;;;;0.90;0.90;;;;;9.70;96101.00;;;;5055747;28;20200;-57
2023/01/02 03:01:50;;;;;;;1.10;1.10;;;;;9.80;96103.00;;;;5055695;28;20642;-57
2023/01/02 03:04:19;;;;;;;1.00;1.00;;;;;9.90;96101.00;;;;5055818;28;20239;-57
2023/01/02 03:07:02;;;;;;;0.80;0.80;;;;;9.80;96097.00;;;;5055637;28;20705;-57
2023/01/02 03:09:49;;;;;;;0.97;0.97;;;;;9.60;96104.00;;;;5055894;28;20184;-58
2023/01/02 03:12:28;;;;;;;1.40;1.30;;;;;9.90;96095.00;;;;5055841;28;20623;-57
2023/01/02 03:15:04;;;;;;;1.10;1.10;;;;;9.80;96092.00;;;;5055446;28;20278;-57
2023/01/02 03:17:48;;;;;;;0.70;0.70;;;;;9.90;96095.00;;;;5055536;28;20218;-57
2023/01/02 03:20:18;;;;;;;0.50;0.50;;;;;9.80;96094.00;;;;5037536;28;20192;-57
2023/01/02 03:22:52;;;;;;;1.90;1.37;;;;;9.60;96092.00;;;;5055382;28;20192;-57
2023/01/02 03:25:21;;;;;;;0.80;0.80;;;;;9.60;96109.00;;;;5054224;28;20211;-57
2023/01/02 03:27:51;;;;;;;2.80;1.27;;;;;9.40;96101.00;;;;5055283;28;20257;-57
2023/01/02 03:30:21;;;;;;;1.10;1.10;;;;;9.40;96105.00;;;;5055437;28;20225;-57
2023/01/02 03:32:53;;;;;;;0.70;0.70;;;;;9.40;96112.00;;;;5037275;28;20204;-57
2023/01/02 03:35:26;;;;;;;2.10;1.47;;;;;9.20;96108.00;;;;5055060;28;20258;-57
2023/01/02 03:37:56;;;;;;;1.17;1.17;;;;;9.30;96109.00;;;;5055143;28;20238;-57
2023/01/02 03:40:30;;;;;;;0.60;0.60;;;;;9.30;96110.00;;;;5037202;28;20188;-57
2023/01/02 03:43:02;;;;;;;1.00;1.00;;;;;9.40;96104.00;;;;5055018;28;20237;-57
2023/01/02 03:45:33;;;;;;;1.10;1.07;;;;;9.40;96100.00;;;;5054768;28;20278;-57
2023/01/02 03:48:13;;;;;;;2.10;0.80;;;;;9.50;96109.00;;;;5055163;28;20627;-57
2023/01/02 03:50:46;;;;;;;0.60;0.60;;;;;9.50;96099.00;;;;5054987;28;20184;-57
2023/01/02 03:53:14;;;;;;;0.70;0.70;;;;;9.60;96099.00;;;;5055396;28;20246;-57
2023/01/02 03:55:49;;;;;;;1.20;1.20;;;;;9.60;96103.00;;;;5054686;28;20216;-57
2023/01/02 03:58:25;;;;;;;0.77;0.77;;;;;9.60;96096.00;;;;5055232;28;20188;-57
2023/01/02 04:01:03;;;;;;;0.97;0.97;;;;;9.70;96096.00;;;;5054592;28;20619;-57
2023/01/02 04:03:36;;;;;;;0.90;0.90;;;;;9.70;96096.00;;;;5054891;28;20186;-57
2023/01/02 04:06:09;;;;;;;0.50;0.50;;;;;9.70;96102.00;;;;5055076;28;20184;-57
2023/01/02 04:08:41;;;;;;;0.90;0.90;;;;;9.60;96093.00;;;;5054764;28;20176;-57
2023/01/02 04:11:10;;;;;;;0.97;0.97;;;;;9.60;96093.00;;;;5054450;28;20303;-57
2023/01/02 04:13:41;;;;;;;0.87;0.87;;;;;9.60;96089.00;;;;5054304;28;20191;-57
2023/01/02 04:16:12;;;;;;;0.50;0.50;;;;;9.60;96085.00;;;;5054405;28;20180;-57
2023/01/02 04:18:46;;;;;;;0.60;0.60;;;;;9.60;96082.00;;;;5036370;28;20683;-57
2023/01/02 04:21:16;;;;;;;0.80;0.80;;;;;9.60;96085.00;;;;5054286;28;20335;-57
2023/01/02 04:23:48;;;;;;;1.20;1.20;;;;;9.70;96075.00;;;;5054160;28;20267;-57
2023/01/02 04:26:21;;;;;;;0.60;0.60;;;;;9.80;96077.00;;;;5054186;28;20188;-57
2023/01/02 04:28:49;;;;;;;0.50;0.50;;;;;9.70;96077.00;;;;5054440;28;20172;-57
2023/01/02 04:31:20;;;;;;;0.80;0.80;;;;;9.70;96079.00;;;;5054319;28;20195;-57
2023/01/02 04:33:53;;;;;;;1.00;1.00;;;;;9.60;96077.00;;;;5054101;28;20242;-57
2023/01/02 04:36:22;;;;;;;1.07;1.03;;;;;9.70;96082.00;;;;5053855;28;20181;-57
2023/01/02 04:38:49;;;;;;;0.70;0.70;;;;;9.60;96080.00;;;;5053871;28;20702;-58
2023/01/02 04:41:25;;;;;;;0.80;0.80;;;;;9.40;96071.00;;;;5054394;28;20199;-57
2023/01/02 04:43:53;;;;;;;1.40;1.10;;;;;9.30;96074.00;;;;5053654;28;20180;-57
2023/01/02 04:46:21;;;;;;;0.60;0.60;;;;;9.30;96076.00;;;;5053825;28;20220;-57
2023/01/02 04:48:50;;;;;;;0.50;0.50;;;;;9.40;96072.00;;;;5054067;28;20666;-57
2023/01/02 04:51:18;;;;;;;0.67;0.67;;;;;9.40;96072.00;;;;5035805;28;20610;-57
2023/01/02 04:53:48;;;;;;;0.70;0.70;;;;;9.20;96072.00;;;;5053592;28;20200;-58
2023/01/02 04:56:15;;;;;;;0.80;0.80;;;;;9.20;96087.00;;;;5053578;28;20196;-57
2023/01/02 04:58:44;;;;;;;0.93;0.93;;;;;9.20;96080.00;;;;5053529;28;20219;-57
2023/01/02 05:01:13;;;;;;;0.60;0.60;;;;;9.10;96090.00;;;;5053468;28;20203;-57
2023/01/02 05:03:41;;;;;;;0.60;0.60;;;;;9.10;96078.00;;;;5053960;28;20196;-58
2023/01/02 05:06:10;;;;;;;2.83;1.63;;;;;9.10;96085.00;;;;5053721;28;20559;-57
2023/01/02 05:08:38;;;;;;;1.17;1.17;;;;;9.10;96076.00;;;;5053385;28;20258;-57
2023/01/02 05:11:06;;;;;;;0.80;0.80;;;;;9.10;96078.00;;;;5053337;28;20196;-57
2023/01/02 05:13:34;;;;;;;0.67;0.67;;;;;9.20;96083.00;;;;5053366;28;20226;-57
2023/01/02 05:16:02;;;;;;;0.60;0.60;;;;;9.10;96084.00;;;;5053808;28;20200;-57
2023/01/02 05:18:30;;;;;;;1.10;1.10;;;;;9.10;96083.00;;;;5053321;28;20673;-57
2023/01/02 05:21:01;;;;;;;1.23;1.23;;;;;9.10;96079.00;;;;5053248;28;20197;-57
2023/01/02 05:23:47;;;;;;;1.17;1.07;;;;;9.00;96086.00;;;;5053214;28;20192;-57
2023/01/02 05:26:15;;;;;;;0.90;0.90;;;;;9.00;96080.00;;;;5053455;28;20180;-57
2023/01/02 05:28:43;;;;;;;0.60;0.60;;;;;9.40;96078.00;;;;5053323;28;20266;-57
2023/01/02 05:31:11;;;;;;;5.17;2.23;;;;;9.30;96091.00;;;;5053764;28;20246;-57
2023/01/02 05:33:38;;;;;;;0.60;0.60;;;;;9.10;96087.00;;;;5052949;28;20192;-57
2023/01/02 05:36:07;;;;;;;0.70;0.70;;;;;9.20;96074.00;;;;5053247;28;20199;-57
2023/01/02 05:38:38;;;;;;;0.60;0.60;;;;;9.30;96083.00;;;;5053937;28;20195;-57
2023/01/02 05:41:07;;;;;;;3.70;1.47;;;;;9.40;96084.00;;;;5053253;28;20204;-57
2023/01/02 05:43:36;;;;;;;0.70;0.70;;;;;9.20;96088.00;;;;5053434;28;20268;-57
2023/01/02 05:46:08;;;;;;;0.60;0.60;;;;;9.10;96080.00;;;;5052809;28;20625;-57
2023/01/02 05:48:36;;;;;;;0.90;0.90;;;;;9.20;96087.00;;;;5052353;28;20234;-57
2023/01/02 05:51:04;;;;;;;1.30;0.70;;;;;9.20;96087.00;;;;5053116;28;20196;-57
2023/01/02 05:53:32;;;;;;;2.77;1.13;;;;;9.10;96093.00;;;;5053018;28;20689;-57
2023/01/02 05:56:06;;;;;;;0.70;0.70;;;;;9.30;96095.00;;;;5052743;28;20313;-57
2023/01/02 05:58:35;;;;;;;1.17;1.07;;;;;9.10;96102.00;;;;5053098;28;20257;-57
2023/01/02 06:01:06;;;;;;;1.37;1.37;;;;;9.00;96098.00;;;;5052643;28;20216;-57
2023/01/02 06:03:34;;;;;;;1.67;1.57;;;;;8.80;96100.00;;;;5052821;28;20204;-57
2023/01/02 06:06:07;;;;;;;0.80;0.80;;;;;8.80;96098.00;;;;5052693;28;20192;-57
2023/01/02 06:08:34;;;;;;;1.07;1.03;;;;;8.80;96093.00;;;;5052690;28;20204;-57
2023/01/02 06:11:03;;;;;;;1.20;1.20;;;;;8.70;96097.00;;;;5052857;28;20188;-57
2023/01/02 06:13:33;;;;;;;0.70;0.70;;;;;8.70;96094.00;;;;5052693;28;20196;-57
2023/01/02 06:16:01;;;;;;;2.83;1.10;;;;;8.50;96101.00;;;;5052824;28;20670;-57
2023/01/02 06:18:31;;;;;;;0.70;0.70;;;;;8.60;96105.00;;;;5053103;28;20238;-57
2023/01/02 06:20:59;;;;;;;0.83;0.83;;;;;8.60;96099.00;;;;5052472;28;20266;-57
2023/01/02 06:23:27;;;;;;;0.70;0.70;;;;;8.70;96107.00;;;;5053083;28;20195;-57
2023/01/02 06:25:55;;;;;;;1.33;0.93;;;;;8.70;96097.00;;;;5052410;28;20745;-57
2023/01/02 06:28:22;;;;;;;1.17;1.17;;;;;8.60;96104.00;;;;5052685;28;20219;-57
2023/01/02 06:30:51;;;;;;;1.07;1.07;;;;;8.60;96107.00;;;;5052721;28;20600;-57
2023/01/02 06:33:19;;;;;;;1.70;1.10;;;;;8.80;96099.00;;;;5052445;28;20251;-57
2023/01/02 06:35:46;;;;;;;0.73;0.73;;;;;9.20;96106.00;;;;5052260;28;20269;-57
2023/01/02 06:38:13;;;;;;;2.33;1.63;;;;;9.30;96111.00;;;;5052373;28;20262;-57
2023/01/02 06:40:41;;;;;;;0.60;0.60;;;;;9.40;96114.00;;;;5052357;28;20224;-56
2023/01/02 06:43:08;;;;;;;3.23;1.63;;;;;9.50;96113.00;;;;5052602;28;20200;-57
2023/01/02 06:45:35;;;;;;;0.60;0.60;;;;;9.50;96102.00;;;;5052224;28;20760;-57
2023/01/02 06:48:05;;;;;;;0.70;0.70;;;;;9.40;96113.00;;;;5052291;28;20675;-57
2023/01/02 06:50:32;;;;;;;0.87;0.87;;;;;9.40;96116.00;;;;5052279;28;20246;-57
2023/01/02 06:52:59;;;;;;;0.60;0.60;;;;;9.30;96115.00;;;;5052290;28;20258;-57
2023/01/02 06:55:27;;;;;;;0.60;0.60;;;;;9.10;96119.00;;;;5052292;28;20212;-57
2023/01/02 06:57:54;;;;;;;0.60;0.60;;;;;8.90;96132.00;;;;5052216;28;20200;-57
2023/01/02 07:00:22;;;;;;;1.00;1.00;;;;;8.90;96142.00;;;;5054487;28;20216;-57
2023/01/02 07:02:49;;;;;;;0.70;0.70;;;;;9.00;96143.00;;;;5056277;28;20192;-56
2023/01/02 07:05:18;;;;;;;2.47;1.33;;;;;9.00;96149.00;;;;5055634;28;20764;-56
2023/01/02 07:07:45;;;;;;;1.73;1.63;;;;;8.70;96151.00;;;;5055635;28;20192;-56
2023/01/02 07:10:13;;;;;;;0.97;0.97;;;;;8.70;96155.00;;;;5055580;28;20215;-56
2023/01/02 07:12:40;;;;;;;0.87;0.87;;;;;8.70;96145.00;;;;5055657;28;20196;-57
2023/01/02 07:15:08;;;;;;;0.70;0.70;;;;;8.70;96145.00;;;;5055387;28;20223;-57
2023/01/02 07:17:35;;;;;;;4.20;1.87;;;;;8.60;96154.00;;;;5050595;28;20203;-57
2023/01/02 07:20:03;;;;;;;1.70;1.60;;;;;8.60;96149.00;;;;5044077;28;20215;-57
2023/01/02 07:22:32;;;;;;;0.90;0.90;;;;;8.60;96153.00;;;;5052526;28;20273;-57
2023/01/02 07:25:00;;;;;;;0.70;0.70;;;;;8.40;96147.00;;;;5034133;28;20706;-57
2023/01/02 07:27:29;;;;;;;2.33;1.07;;;;;8.40;96160.00;;;;5053454;28;20591;-58
2023/01/02 07:29:57;;;;;;;1.20;1.20;;;;;8.40;96159.00;;;;5052526;28;20308;-58
2023/01/02 07:32:25;;;;;;;0.60;0.60;;;;;8.30;96153.00;;;;5035134;28;20212;-58
2023/01/02 07:34:52;;;;;;;0.80;0.80;;;;;8.40;96160.00;;;;5052315;28;20228;-58
2023/01/02 07:37:19;;;;;;;2.90;2.70;;;;;8.40;96153.00;;;;5053048;28;20261;-56
2023/01/02 07:39:48;;;;;;;2.13;2.03;;;;;8.40;96162.00;;;;5052139;28;20270;-56
2023/01/02 07:42:15;;;;;;;0.70;0.70;;;;;8.50;96153.00;;;;5052937;28;20200;-58
2023/01/02 07:44:43;;;;;;;1.30;1.20;;;;;8.60;96162.00;;;;5052103;28;20232;-56
2023/01/02 07:47:10;;;;;;;0.80;0.80;;;;;8.60;96165.00;;;;5045262;28;20203;-58
2023/01/02 07:49:38;;;;;;;0.60;0.60;;;;;8.80;96155.00;;;;5051308;28;20197;-57
2023/01/02 07:52:08;;;;;;;0.83;0.77;;;;;8.80;96163.00;;;;5052675;28;20236;-56
2023/01/02 07:54:36;;;;;;;0.60;0.60;;;;;8.90;96162.00;;;;5052334;28;20231;-58
2023/01/02 07:57:04;;;;;;;1.60;1.50;;;;;9.00;96159.00;;;;5052286;28;20257;-58
2023/01/02 07:59:32;;;;;;;0.70;0.70;;;;;9.30;96157.00;;;;5052140;28;20678;-56
2023/01/02 08:01:59;;;;;;;0.70;0.70;;;;;9.30;96162.00;;;;5052059;28;20203;-56
2023/01/02 08:04:26;;;;;;;0.63;0.63;;;;;9.40;96164.00;;;;5052408;28;20752;-57
2023/01/02 08:06:54;;;;;;;1.47;1.33;;;;;9.30;96170.00;;;;5051737;28;20247;-56
2023/01/02 08:09:21;;;;;;;2.00;1.17;;;;;9.30;96170.00;;;;5052390;28;20200;-56
2023/01/02 08:11:49;;;;;;;1.37;1.27;;;;;9.40;96176.00;;;;5033286;28;20685;-56
2023/01/02 08:14:17;;;;;;;0.50;0.50;;;;;9.40;96182.00;;;;5052282;28;20223;-56
2023/01/02 08:16:45;;;;;;;0.70;0.70;;;;;9.40;96189.00;;;;5051937;28;20544;-56
2023/01/02 08:19:12;;;;;;;0.60;0.60;;;;;9.60;96189.00;;;;5050969;28;20208;-58
2023/01/02 08:21:40;;;;;;;0.57;0.57;;;;;9.60;96183.00;;;;5051432;28;20262;-56
2023/01/02 08:24:08;;;;;;;0.63;0.63;;;;;9.60;96193.00;;;;5052099;28;20223;-56
2023/01/02 08:26:35;;;;;;;0.70;0.70;;;;;9.70;96181.00;;;;5033499;28;20204;-58
2023/01/02 08:29:03;;;;;;;0.50;0.50;;;;;9.50;96189.00;;;;5052067;28;20204;-56
2023/01/02 08:31:31;;;;;;;0.77;0.77;;;;;9.50;96190.00;;;;5051249;28;20567;-56
2023/01/02 08:33:59;;;;;;;1.27;1.17;;;;;9.70;96193.00;;;;5051812;28;20216;-56
2023/01/02 08:36:26;;;;;;;2.83;1.60;;;;;9.70;96193.00;;;;5051116;28;20192;-58
2023/01/02 08:38:53;;;;;;;1.17;1.17;;;;;9.90;96197.00;;;;5051781;28;20200;-56
2023/01/02 08:41:31;;;;;;;0.63;0.63;;;;;9.90;96202.00;;;;5063708;28;20216;-56
2023/01/02 08:43:59;;;;;;;5.73;1.37;;;;;9.90;96211.00;;;;5050420;28;20219;-56
2023/01/02 08:46:27;;;;;;;0.53;0.53;;;;;9.90;96205.00;;;;5051009;28;20196;-56
2023/01/02 08:48:55;;;;;;;0.60;0.60;;;;;10.00;96208.00;;;;5051224;28;20203;-56
2023/01/02 08:51:23;;;;;;;0.60;0.60;;;;;10.00;96200.00;;;;5050905;28;20258;-56
2023/01/02 08:53:50;;;;;;;0.60;0.60;;;;;10.00;96202.00;;;;5051463;28;20203;-56
2023/01/02 08:56:23;;;;;;;0.80;0.80;;;;;10.00;96199.00;;;;5030565;28;20232;-56
2023/01/02 08:58:52;;;;;;;1.00;1.00;;;;;10.10;96211.00;;;;5051452;28;20200;-56
2023/01/02 09:01:19;;;;;;;0.90;0.90;;;;;10.10;96216.00;;;;5032616;28;20698;-57
2023/01/02 09:03:47;;;;;;;0.80;0.80;;;;;10.10;96207.00;;;;5051358;28;20200;-58
2023/01/02 09:06:15;;;;;;;0.60;0.60;;;;;10.30;96214.00;;;;5050571;28;20196;-56
2023/01/02 09:08:43;;;;;;;0.60;0.60;;;;;10.40;96216.00;;;;5051272;28;20565;-58
2023/01/02 09:11:12;;;;;;;1.03;1.03;;;;;10.40;96230.00;;;;5050813;28;20678;-56
2023/01/02 09:13:39;;;;;;;0.70;0.70;;;;;10.30;96228.00;;;;5050762;28;20199;-56
2023/01/02 09:16:07;;;;;;;0.90;0.90;;;;;10.10;96230.00;;;;5050579;28;20266;-56
2023/01/02 09:18:35;;;;;;;1.73;1.43;;;;;9.90;96231.00;;;;5051294;28;20199;-56
2023/01/02 09:21:03;;;;;;;1.13;1.13;;;;;10.00;96236.00;;;;5067377;28;20223;-56
2023/01/02 09:23:33;;;;;;;1.03;1.03;;;;;10.20;96228.00;;;;5070445;28;20658;-56
2023/01/02 09:26:02;;;;;;;1.33;1.23;;;;;10.40;96232.00;;;;5070315;28;20253;-55
2023/01/02 09:28:31;;;;;;;0.87;0.87;;;;;10.50;96240.00;;;;5071191;28;20210;-55
2023/01/02 09:30:59;;;;;;;1.00;0.93;;;;;10.70;96250.00;;;;5071452;28;20199;-56
2023/01/02 09:33:26;;;;;;;0.83;0.83;;;;;10.80;96246.00;;;;5071833;28;20210;-56
2023/01/02 09:35:54;;;;;;;1.27;1.27;;;;;10.80;96265.00;;;;5070277;28;20252;-57
2023/01/02 09:38:21;;;;;;;2.07;1.50;;;;;10.70;96262.00;;;;5071029;28;20206;-56
2023/01/02 09:40:53;;;;;;;0.60;0.60;;;;;10.60;96264.00;;;;5070188;28;20230;-57
2023/01/02 09:43:27;;;;;;;7.93;1.17;;;;;10.80;96264.00;;;;5070721;28;20531;-57
2023/01/02 09:45:57;;;;;;;1.20;0.77;;;;;10.90;96270.00;;;;5032740;28;20780;-57
2023/01/02 09:48:29;;;;;;;0.60;0.60;;;;;11.10;96274.00;;;;5056571;28;20248;-57
2023/01/02 09:50:56;;;;;;;0.60;0.60;;;;;11.10;96271.00;;;;5070094;28;20188;-57
2023/01/02 09:53:24;;;;;;;1.13;1.13;;;;;11.30;96276.00;;;;5070758;28;20240;-57
2023/01/02 09:55:56;;;;;;;1.63;1.53;;;;;11.40;96271.00;;;;5069990;28;20218;-57
2023/01/02 09:58:33;;;;;;;0.60;0.60;;;;;11.50;96278.00;;;;5070783;28;20191;-57
2023/01/02 10:01:01;;;;;;;0.90;0.90;;;;;11.60;96274.00;;;;5048410;28;20211;-57
2023/01/02 10:03:36;;;;;;;6.77;2.03;;;;;11.80;96281.00;;;;5050759;28;20199;-57
2023/01/02 10:06:11;;;;;;;0.87;0.87;;;;;12.10;96292.00;;;;5050019;28;20198;-57
2023/01/02 10:08:53;;;;;;;0.80;0.80;;;;;12.30;96287.00;;;;5046446;28;20196;-57
2023/01/02 10:11:39;;;;;;;0.93;0.93;;;;;12.50;96285.00;;;;5049870;28;20555;-57
2023/01/02 10:14:13;;;;;;;0.80;0.80;;;;;12.70;96290.00;;;;5050235;28;20269;-57
2023/01/02 10:16:44;;;;;;;1.60;0.87;;;;;12.80;96287.00;;;;5045649;28;20193;-57
2023/01/02 10:19:16;;;;;;;0.70;0.70;;;;;12.70;96286.00;;;;5050244;28;20203;-57
2023/01/02 10:21:47;;;;;;;1.37;1.10;;;;;12.90;96280.00;;;;5050045;28;20211;-57
2023/01/02 10:24:20;;;;;;;0.83;0.83;;;;;13.10;96286.00;;;;5050463;28;20250;-57
2023/01/02 10:26:52;;;;;;;3.03;0.93;;;;;13.00;96279.00;;;;5049814;28;20196;-57
2023/01/02 10:29:27;;;;;;;0.63;0.63;;;;;12.90;96280.00;;;;5050587;28;20243;-56
2023/01/02 10:31:59;;;;;;;0.93;0.93;;;;;13.20;96284.00;;;;5050052;28;20658;-57
2023/01/02 10:34:36;;;;;;;0.50;0.50;;;;;13.20;96285.00;;;;5048604;28;20772;-57
2023/01/02 10:37:09;;;;;;;0.60;0.60;;;;;13.40;96283.00;;;;5053542;28;20204;-57
2023/01/02 10:39:37;;;;;;;0.77;0.77;;;;;13.90;96280.00;;;;5054249;28;20196;-57
2023/01/02 10:42:05;;;;;;;0.87;0.87;;;;;14.30;96276.00;;;;5053368;28;20224;-57
2023/01/02 10:44:35;;;;;;;11.87;1.57;;;;;14.60;96281.00;;;;5053785;28;20231;-57
2023/01/02 10:47:13;;;;;;;0.60;0.60;;;;;14.80;96276.00;;;;5053362;28;20203;-57
2023/01/02 10:49:43;;;;;;;0.70;0.70;;;;;15.00;96270.00;;;;5054007;28;20689;-57
2023/01/02 10:52:18;;;;;;;1.33;0.63;;;;;15.10;96275.00;;;;5053600;28;20705;-57
2023/01/02 10:54:50;;;;;;;1.47;0.97;;;;;15.30;96280.00;;;;5053766;28;20581;-58
2023/01/02 10:57:24;;;;;;;0.90;0.90;;;;;15.00;96284.00;;;;5053090;28;20717;-57
2023/01/02 10:59:58;;;;;;;0.70;0.70;;;;;15.40;96275.00;;;;5053886;28;20188;-57
2023/01/02 11:02:29;;;;;;;0.80;0.80;;;;;15.30;96285.00;;;;5053261;28;20733;-57
2023/01/02 11:05:01;;;;;;;0.80;0.80;;;;;15.50;96281.00;;;;5053668;28;20216;-57
2023/01/02 11:07:32;;;;;;;5.33;1.53;;;;;16.10;96270.00;;;;5053394;28;20192;-58
2023/01/02 11:10:00;;;;;;;0.70;0.70;;;;;16.20;96283.00;;;;5053425;28;20670;-57
2023/01/02 11:12:31;;;;;;;0.80;0.80;;;;;16.70;96254.00;;;;5053378;28;20210;-57
2023/01/02 11:15:13;;;;;;;1.83;1.13;;;;;17.80;96248.00;;;;5053099;28;20223;-57
2023/01/02 11:17:43;;;;;;;5.93;1.47;;;;;18.20;96230.00;;;;5053048;28;20211;-57
2023/01/02 11:20:28;;;;;;;0.90;0.90;;;;;17.40;96237.00;;;;5034348;28;20204;-58
2023/01/02 11:22:57;;;;;;;2.90;2.40;;;;;18.40;96232.00;;;;5053069;28;20207;-58
2023/01/02 11:25:27;;;;;;;7.20;1.43;;;;;18.70;96240.00;;;;5048338;28;20216;-57
2023/01/02 11:28:00;;;;;;;1.13;1.13;;;;;19.50;96250.00;;;;5052778;28;20265;-57
2023/01/02 11:30:35;;;;;;;0.60;0.60;;;;;18.80;96295.00;;;;5051984;28;20271;-57
2023/01/02 11:33:08;;;;;;;0.60;0.60;;;;;17.30;96286.00;;;;5052775;28;20262;-57
2023/01/02 11:35:43;;;;;;;2.00;1.00;;;;;18.60;96294.00;;;;5051861;28;20216;-57
2023/01/02 11:38:19;;;;;;;0.57;0.57;;;;;17.40;96307.00;;;;5052752;28;20199;-58
2023/01/02 11:40:55;;;;;;;1.13;1.13;;;;;16.70;96297.00;;;;5048233;28;20196;-58
2023/01/02 11:43:48;;;;;;;2.50;1.53;;;;;16.10;96323.00;;;;5052690;28;20192;-57
2023/01/02 11:46:34;;;;;;;1.00;0.90;;;;;15.60;96304.00;;;;5051948;28;20278;-58
2023/01/02 11:49:06;;;;;;;0.90;0.90;;;;;15.40;96324.00;;;;5050519;28;20188;-56
2023/01/02 11:51:36;;;;;;;0.97;0.93;;;;;15.10;96333.00;;;;5034869;28;20568;-56
2023/01/02 11:54:10;;;;;;;1.23;1.13;;;;;15.30;96308.00;;;;5052226;28;20216;-57
2023/01/02 11:56:41;;;;;;;0.50;0.50;;;;;15.40;96313.00;;;;5052276;28;20188;-56
2023/01/02 11:59:17;;;;;;;1.70;1.60;;;;;15.20;96297.00;;;;5052354;28;20201;-57
2023/01/02 12:01:53;;;;;;;0.67;0.67;;;;;15.20;96314.00;;;;5048359;28;20203;-56
2023/01/02 12:04:21;;;;;;;1.33;1.00;;;;;15.20;96317.00;;;;5059391;28;20570;-56
2023/01/02 12:07:14;;;;;;;2.50;0.83;;;;;15.30;96293.00;;;;5071959;28;20666;-56
2023/01/02 12:09:52;;;;;;;1.07;0.97;;;;;15.00;96300.00;;;;5048008;28;20204;-56
2023/01/02 12:12:39;;;;;;;2.93;1.33;;;;;15.00;96309.00;;;;5052183;28;20635;-57
2023/01/02 12:15:39;;;;;;;0.80;0.80;;;;;15.10;96299.00;;;;5051980;28;20319;-57
2023/01/02 12:18:15;;;;;;;1.33;1.03;;;;;14.90;96321.00;;;;5051926;28;20250;-59
2023/01/02 12:20:51;;;;;;;0.73;0.73;;;;;15.00;96302.00;;;;5051529;28;20191;-56
2023/01/02 12:23:36;;;;;;;5.23;1.50;;;;;15.00;96304.00;;;;5052172;28;20260;-58
2023/01/02 12:26:10;;;;;;;1.00;1.00;;;;;15.10;96289.00;;;;5051396;28;20214;-58
2023/01/02 12:29:12;;;;;;;0.80;0.80;;;;;15.30;96294.00;;;;5051851;28;20196;-57
2023/01/02 12:32:06;;;;;;;0.97;0.97;;;;;15.50;96304.00;;;;5051808;28;20188;-56
2023/01/02 12:34:52;;;;;;;1.00;1.00;;;;;15.80;96314.00;;;;5049640;28;20219;-58
2023/01/02 12:37:33;;;;;;;1.40;1.30;;;;;15.70;96319.00;;;;5053210;28;20187;-58
2023/01/02 12:40:13;;;;;;;1.70;1.47;;;;;15.90;96321.00;;;;5071426;28;20256;-58
2023/01/02 12:43:03;;;;;;;1.03;1.03;;;;;15.70;96314.00;;;;5051394;28;20238;-59